Time;durP1;ratioP1;P1;durP2;ratioP2;P2;SDS_P1;SDS_P2;PMS_P1;PMS_P2;Temp;Humidity;BMP_temperature;BMP_pressure;BME280_temperature;BME280_humidity;BME280_pressure;Samples;Min_cycle;Max_cycle;Signal;HPM_P1;HPM_P2
2023/06/17 00:01:14;;;;;;;16.15;9.82;;;15.50;99.90;;;;;;4955764;29;20762;-77
2023/06/17 00:03:40;;;;;;;23.58;13.30;;;15.50;99.90;;;;;;4956109;29;20522;-76
2023/06/17 00:06:06;;;;;;;21.85;12.57;;;15.50;99.90;;;;;;4955878;29;20027;-77
2023/06/17 00:08:31;;;;;;;18.77;10.00;;;15.40;99.90;;;;;;4955760;29;20082;-77
2023/06/17 00:10:57;;;;;;;16.83;9.68;;;15.40;99.90;;;;;;4955498;29;20030;-76
2023/06/17 00:13:22;;;;;;;19.70;11.82;;;15.40;99.90;;;;;;4955240;29;20305;-76
2023/06/17 00:15:53;;;;;;;28.05;17.55;;;15.30;99.90;;;;;;4955691;29;20071;-76
2023/06/17 00:18:19;;;;;;;20.92;11.75;;;15.30;99.90;;;;;;4955844;29;20051;-77
2023/06/17 00:20:46;;;;;;;20.38;11.73;;;15.20;99.90;;;;;;4955535;29;20035;-76
2023/06/17 00:23:12;;;;;;;25.58;15.43;;;15.20;99.90;;;;;;4955700;29;20089;-76
2023/06/17 00:25:37;;;;;;;18.92;10.73;;;15.20;99.90;;;;;;4955559;29;20102;-77
2023/06/17 00:28:03;;;;;;;18.73;9.32;;;15.20;99.90;;;;;;4955365;29;20027;-77
2023/06/17 00:30:29;;;;;;;17.05;10.18;;;15.10;99.90;;;;;;4955485;29;20031;-76
2023/06/17 00:32:57;;;;;;;17.38;8.82;;;15.10;99.90;;;;;;4942760;29;20039;-77
2023/06/17 00:35:22;;;;;;;17.60;9.27;;;15.10;99.90;;;;;;4936395;29;20075;-76
2023/06/17 00:37:48;;;;;;;17.17;9.50;;;15.00;99.90;;;;;;4936636;29;20085;-77
2023/06/17 00:40:13;;;;;;;16.58;10.02;;;15.00;99.90;;;;;;4936068;29;20154;-77
2023/06/17 00:42:39;;;;;;;20.55;11.68;;;15.00;99.90;;;;;;4935300;29;20099;-77
2023/06/17 00:45:06;;;;;;;23.13;12.05;;;14.90;99.90;;;;;;4936134;29;20027;-75
2023/06/17 00:47:32;;;;;;;22.10;10.88;;;14.90;99.90;;;;;;4936042;29;20063;-75
2023/06/17 00:49:58;;;;;;;17.45;9.00;;;14.90;99.90;;;;;;4935720;29;20063;-76
2023/06/17 00:52:25;;;;;;;20.42;9.80;;;14.80;99.90;;;;;;4936026;29;20027;-76
2023/06/17 00:54:52;;;;;;;16.13;10.50;;;14.80;99.90;;;;;;4935736;29;20036;-75
2023/06/17 00:57:17;;;;;;;16.15;9.10;;;14.80;99.90;;;;;;4935828;29;20027;-77
2023/06/17 00:59:44;;;;;;;17.33;9.98;;;14.70;99.90;;;;;;4935563;29;20079;-76
2023/06/17 01:02:11;;;;;;;17.38;10.32;;;14.70;99.90;;;;;;4935368;29;20448;-76
2023/06/17 01:04:37;;;;;;;16.45;10.07;;;14.60;99.90;;;;;;4935680;29;20469;-76
2023/06/17 01:07:26;;;;;;;17.05;11.10;;;14.60;99.90;;;;;;4935609;29;20036;-77
2023/06/17 01:10:08;;;;;;;20.55;11.98;;;14.60;99.90;;;;;;4918185;29;20038;-76
2023/06/17 01:12:33;;;;;;;19.55;11.60;;;14.60;99.90;;;;;;4935261;29;20110;-77
2023/06/17 01:15:01;;;;;;;19.75;11.57;;;14.50;99.90;;;;;;4935396;29;20131;-75
2023/06/17 01:17:28;;;;;;;20.27;12.13;;;14.50;99.90;;;;;;4935350;29;20020;-75
2023/06/17 01:19:54;;;;;;;21.73;13.07;;;14.50;99.90;;;;;;4934979;29;20127;-76
2023/06/17 01:22:21;;;;;;;22.38;14.35;;;14.40;99.90;;;;;;4935230;29;20501;-76
2023/06/17 01:24:49;;;;;;;23.98;16.27;;;14.40;99.90;;;;;;4935270;29;20519;-77
2023/06/17 01:27:15;;;;;;;23.98;16.02;;;14.40;99.90;;;;;;4935285;29;20082;-75
2023/06/17 01:29:41;;;;;;;26.30;18.92;;;14.40;99.90;;;;;;4934843;29;20399;-75
2023/06/17 01:32:06;;;;;;;25.98;17.17;;;14.30;99.90;;;;;;4923637;29;20118;-77
2023/06/17 01:34:51;;;;;;;21.63;14.77;;;14.30;99.90;;;;;;4954149;29;20039;-75
2023/06/17 01:37:34;;;;;;;24.63;16.58;;;14.30;99.90;;;;;;4954301;29;20171;-76
2023/06/17 01:40:02;;;;;;;23.58;16.65;;;14.30;99.90;;;;;;4954026;29;20067;-75
2023/06/17 01:42:35;;;;;;;25.42;16.48;;;14.30;99.90;;;;;;4953947;29;20056;-77
2023/06/17 01:45:05;;;;;;;23.23;15.90;;;14.30;99.90;;;;;;4954419;29;20039;-77
2023/06/17 01:47:31;;;;;;;24.00;15.77;;;14.20;99.90;;;;;;4954208;29;20035;-76
2023/06/17 01:49:58;;;;;;;22.55;16.10;;;14.30;99.90;;;;;;4954236;29;20102;-76
2023/06/17 01:52:25;;;;;;;25.50;15.93;;;14.20;99.90;;;;;;4954080;29;20027;-77
2023/06/17 01:54:50;;;;;;;21.48;16.02;;;14.30;99.90;;;;;;4953761;29;20074;-76
2023/06/17 01:57:16;;;;;;;21.90;15.90;;;14.30;99.90;;;;;;4953701;29;20031;-75
2023/06/17 01:59:43;;;;;;;21.90;14.55;;;14.20;99.90;;;;;;4953681;29;20031;-76
2023/06/17 02:02:08;;;;;;;19.77;13.45;;;14.20;99.90;;;;;;4953881;29;20123;-76
2023/06/17 02:04:34;;;;;;;24.42;15.98;;;14.20;99.90;;;;;;4953873;29;20110;-76
2023/06/17 02:07:00;;;;;;;22.27;16.33;;;14.20;99.90;;;;;;4953607;29;20082;-76
2023/06/17 02:09:25;;;;;;;22.02;14.88;;;14.20;99.90;;;;;;4953584;29;20035;-76
2023/06/17 02:11:51;;;;;;;24.58;17.30;;;14.20;99.90;;;;;;4954276;29;20459;-77
2023/06/17 02:14:16;;;;;;;26.63;16.90;;;14.20;99.90;;;;;;4936156;29;20130;-77
2023/06/17 02:16:49;;;;;;;26.42;18.30;;;14.20;99.90;;;;;;4953405;29;20031;-76
2023/06/17 02:19:15;;;;;;;25.73;17.13;;;14.20;99.90;;;;;;4953446;29;20483;-76
2023/06/17 02:21:42;;;;;;;24.45;16.92;;;14.20;99.90;;;;;;4953828;28;20107;-76
2023/06/17 02:24:08;;;;;;;22.83;15.93;;;14.20;99.90;;;;;;4957262;29;20058;-77
2023/06/17 02:26:34;;;;;;;21.73;16.20;;;14.20;99.90;;;;;;4957599;29;20464;-77
2023/06/17 02:28:59;;;;;;;23.63;16.05;;;14.10;99.90;;;;;;4957506;29;20141;-77
2023/06/17 02:31:28;;;;;;;22.85;16.95;;;14.10;99.90;;;;;;4957165;29;20023;-77
2023/06/17 02:33:55;;;;;;;24.83;16.67;;;14.10;99.90;;;;;;4938491;29;20039;-77
2023/06/17 02:36:20;;;;;;;24.88;17.15;;;14.10;99.90;;;;;;4937887;29;20437;-76
2023/06/17 02:38:46;;;;;;;26.08;19.42;;;14.10;99.90;;;;;;4938208;29;20163;-77
2023/06/17 02:41:12;;;;;;;25.33;19.13;;;14.10;99.90;;;;;;4938338;29;20428;-78
2023/06/17 02:43:37;;;;;;;24.45;18.90;;;14.10;99.90;;;;;;4937973;29;20848;-75
2023/06/17 02:46:03;;;;;;;24.27;17.23;;;14.20;99.90;;;;;;4938108;29;20035;-75
2023/06/17 02:48:28;;;;;;;23.95;16.88;;;14.20;99.90;;;;;;4937880;29;20024;-76
2023/06/17 02:50:54;;;;;;;24.13;17.38;;;14.10;99.90;;;;;;4938023;29;20039;-76
2023/06/17 02:53:20;;;;;;;22.20;16.25;;;14.10;99.90;;;;;;4937897;29;20027;-76
2023/06/17 02:55:48;;;;;;;22.52;14.38;;;14.10;99.90;;;;;;4937890;29;20076;-75
2023/06/17 02:58:15;;;;;;;23.40;15.65;;;14.10;99.90;;;;;;4937906;29;20031;-75
2023/06/17 03:00:45;;;;;;;25.60;16.77;;;14.10;99.90;;;;;;4937666;29;20032;-76
2023/06/17 03:03:10;;;;;;;21.50;14.40;;;14.00;99.90;;;;;;4937791;29;20027;-75
2023/06/17 03:05:37;;;;;;;20.20;13.77;;;14.00;99.90;;;;;;4937469;29;20027;-75
2023/06/17 03:08:04;;;;;;;18.98;13.07;;;14.00;99.90;;;;;;4920571;29;20379;-76
2023/06/17 03:10:30;;;;;;;23.92;16.23;;;14.00;99.90;;;;;;4937533;29;20607;-76
2023/06/17 03:12:56;;;;;;;21.65;13.82;;;13.90;99.90;;;;;;4937488;29;20028;-74
2023/06/17 03:15:21;;;;;;;19.38;13.13;;;13.90;99.90;;;;;;4937572;29;20162;-75
2023/06/17 03:17:47;;;;;;;20.45;12.63;;;13.90;99.90;;;;;;4920403;29;20098;-75
2023/06/17 03:20:12;;;;;;;20.15;13.77;;;13.90;99.90;;;;;;4937816;29;20036;-75
2023/06/17 03:22:39;;;;;;;18.25;12.82;;;13.90;99.90;;;;;;4937333;29;20031;-75
2023/06/17 03:25:07;;;;;;;21.42;13.20;;;13.90;99.90;;;;;;4936972;29;20107;-75
2023/06/17 03:27:33;;;;;;;20.02;14.75;;;13.90;99.90;;;;;;4937227;29;20068;-75
2023/06/17 03:29:58;;;;;;;21.13;13.93;;;13.90;99.90;;;;;;4937055;29;20039;-76
2023/06/17 03:32:24;;;;;;;22.33;14.82;;;13.90;99.90;;;;;;4945455;29;20460;-75
2023/06/17 03:34:49;;;;;;;20.02;13.63;;;13.90;99.90;;;;;;4954805;28;20035;-76
2023/06/17 03:37:15;;;;;;;21.17;14.38;;;13.90;99.90;;;;;;4955912;29;20023;-76
2023/06/17 03:39:43;;;;;;;18.60;13.00;;;13.90;99.90;;;;;;4956029;29;20039;-75
2023/06/17 03:42:08;;;;;;;19.63;13.63;;;14.00;99.90;;;;;;4956139;29;20066;-76
2023/06/17 03:44:34;;;;;;;22.90;15.00;;;14.00;99.90;;;;;;4956302;29;20055;-76
2023/06/17 03:46:59;;;;;;;22.63;15.75;;;14.00;99.90;;;;;;4956323;29;20035;-76
2023/06/17 03:49:25;;;;;;;24.80;17.08;;;14.00;99.90;;;;;;4956285;29;20027;-75
2023/06/17 03:51:51;;;;;;;27.25;19.55;;;14.10;99.90;;;;;;4955903;29;20376;-74
2023/06/17 03:54:16;;;;;;;24.15;16.80;;;14.10;99.90;;;;;;4955533;29;20042;-75
2023/06/17 03:56:42;;;;;;;25.63;18.50;;;14.10;99.90;;;;;;4955724;29;20076;-74
2023/06/17 03:59:08;;;;;;;23.73;17.55;;;14.20;99.90;;;;;;4955547;29;20119;-74
2023/06/17 04:01:35;;;;;;;24.02;17.30;;;14.20;99.90;;;;;;4955813;29;20062;-75
2023/06/17 04:04:01;;;;;;;27.45;19.23;;;14.30;99.90;;;;;;4938666;29;20463;-75
2023/06/17 04:06:26;;;;;;;22.45;16.30;;;14.30;99.90;;;;;;4955756;29;20031;-76
2023/06/17 04:08:53;;;;;;;27.65;18.67;;;14.40;99.90;;;;;;4955792;29;20436;-75
2023/06/17 04:11:19;;;;;;;25.60;17.13;;;14.40;99.90;;;;;;4956118;29;20038;-74
2023/06/17 04:13:44;;;;;;;24.70;15.98;;;14.40;99.90;;;;;;4955746;29;20035;-75
2023/06/17 04:16:11;;;;;;;22.17;15.90;;;14.50;99.90;;;;;;4956035;29;20515;-74
2023/06/17 04:18:36;;;;;;;24.88;16.95;;;14.50;99.90;;;;;;4955924;29;20114;-74
2023/06/17 04:21:02;;;;;;;23.20;16.52;;;14.60;99.90;;;;;;4955753;29;20127;-74
2023/06/17 04:23:27;;;;;;;25.48;16.65;;;14.60;99.90;;;;;;4955293;29;20110;-74
2023/06/17 04:25:53;;;;;;;24.63;16.55;;;14.70;99.90;;;;;;4955558;29;20062;-75
2023/06/17 04:28:18;;;;;;;22.90;16.17;;;14.70;99.90;;;;;;4955580;29;20038;-74
2023/06/17 04:30:47;;;;;;;22.17;15.57;;;14.80;99.90;;;;;;4955606;29;20038;-75
2023/06/17 04:33:14;;;;;;;21.65;14.88;;;14.80;99.90;;;;;;4923584;29;20354;-76
2023/06/17 04:35:42;;;;;;;22.52;14.63;;;14.90;99.90;;;;;;4935949;29;20087;-75
2023/06/17 04:38:11;;;;;;;22.73;14.18;;;15.00;99.90;;;;;;4935887;29;20243;-74
2023/06/17 04:40:37;;;;;;;21.42;13.00;;;15.10;99.90;;;;;;4919298;29;20031;-74
2023/06/17 04:43:03;;;;;;;19.35;13.05;;;15.10;99.90;;;;;;4936093;29;20063;-74
2023/06/17 04:45:30;;;;;;;22.13;15.07;;;15.20;99.90;;;;;;4935936;29;20035;-74
2023/06/17 04:47:56;;;;;;;20.13;12.95;;;15.30;99.90;;;;;;4936333;29;20028;-74
2023/06/17 04:50:23;;;;;;;18.55;12.65;;;15.40;99.90;;;;;;4935940;29;20023;-75
2023/06/17 04:52:51;;;;;;;17.95;12.48;;;15.50;99.90;;;;;;4935780;29;20044;-76
2023/06/17 04:55:18;;;;;;;18.95;12.55;;;15.60;99.90;;;;;;4935797;29;20035;-75
2023/06/17 04:57:44;;;;;;;18.15;12.13;;;15.80;99.90;;;;;;4918955;29;20043;-74
2023/06/17 05:00:11;;;;;;;17.90;11.63;;;15.90;99.90;;;;;;4935961;29;20468;-75
2023/06/17 05:02:37;;;;;;;18.05;11.68;;;16.00;99.90;;;;;;4935823;29;20027;-73
2023/06/17 05:05:05;;;;;;;17.70;11.80;;;16.20;99.90;;;;;;4936014;29;20039;-73
2023/06/17 05:07:30;;;;;;;20.65;11.20;;;16.30;99.90;;;;;;4935835;29;20036;-73
2023/06/17 05:09:56;;;;;;;19.73;11.13;;;16.50;99.90;;;;;;4935710;29;20075;-72
2023/06/17 05:12:21;;;;;;;18.88;12.73;;;16.70;99.90;;;;;;4936116;29;20032;-74
2023/06/17 05:14:47;;;;;;;19.85;12.82;;;16.90;99.90;;;;;;4935586;29;20044;-74
2023/06/17 05:17:13;;;;;;;22.40;12.77;;;17.10;99.90;;;;;;4935354;29;20108;-74
2023/06/17 05:19:38;;;;;;;19.45;13.02;;;17.30;99.90;;;;;;4935471;29;20584;-73
2023/06/17 05:22:04;;;;;;;20.10;13.25;;;17.50;99.90;;;;;;4935458;29;20091;-75
2023/06/17 05:24:29;;;;;;;21.73;13.18;;;17.80;99.90;;;;;;4935182;29;20038;-74
2023/06/17 05:26:55;;;;;;;20.65;14.30;;;18.20;99.90;;;;;;4935473;29;20035;-74
2023/06/17 05:29:21;;;;;;;17.02;10.68;;;18.80;99.90;;;;;;4935249;29;20024;-74
2023/06/17 05:31:46;;;;;;;19.60;10.98;;;19.50;99.90;;;;;;4938343;29;20023;-74
2023/06/17 05:34:12;;;;;;;20.30;12.30;;;20.30;99.90;;;;;;4954646;29;20043;-73
2023/06/17 05:36:37;;;;;;;13.32;8.63;;;21.20;99.90;;;;;;4954603;29;20035;-74
2023/06/17 05:39:03;;;;;;;16.33;10.07;;;22.20;99.90;;;;;;4954626;29;20032;-74
2023/06/17 05:41:28;;;;;;;10.15;6.20;;;23.10;99.90;;;;;;4954277;29;20035;-74
2023/06/17 05:43:54;;;;;;;9.50;6.30;;;23.90;99.90;;;;;;4953590;28;20103;-73
2023/06/17 05:46:19;;;;;;;10.80;6.63;;;24.70;99.90;;;;;;4953851;29;20114;-74
2023/06/17 05:48:45;;;;;;;8.93;5.35;;;25.40;99.90;;;;;;4953863;29;20536;-75
2023/06/17 05:51:10;;;;;;;9.82;5.43;;;26.00;99.20;;;;;;4953852;29;20023;-75
2023/06/17 05:53:36;;;;;;;11.63;5.78;;;26.70;97.90;;;;;;4954015;29;20439;-75
2023/06/17 05:56:02;;;;;;;10.43;6.75;;;27.40;96.20;;;;;;4954339;29;20039;-74
2023/06/17 05:58:27;;;;;;;9.00;5.00;;;28.10;95.40;;;;;;4953614;29;20027;-75
2023/06/17 06:00:53;;;;;;;10.70;4.82;;;28.80;93.90;;;;;;4954321;29;20062;-75
2023/06/17 06:03:18;;;;;;;11.00;5.20;;;29.40;92.20;;;;;;4954156;29;20133;-74
2023/06/17 06:05:44;;;;;;;5.95;3.88;;;29.80;90.50;;;;;;4953847;29;20084;-75
2023/06/17 06:08:09;;;;;;;9.98;5.18;;;30.10;89.10;;;;;;4954087;29;20371;-75
2023/06/17 06:10:35;;;;;;;6.30;4.00;;;30.40;87.30;;;;;;4954049;29;20031;-74
2023/06/17 06:13:00;;;;;;;13.73;4.70;;;30.60;85.90;;;;;;4954118;29;20031;-75
2023/06/17 06:15:26;;;;;;;8.95;4.40;;;30.90;84.50;;;;;;4953986;29;20066;-75
2023/06/17 06:17:53;;;;;;;11.25;5.38;;;31.20;83.40;;;;;;4954177;29;20059;-74
2023/06/17 06:20:18;;;;;;;12.10;5.90;;;31.70;81.90;;;;;;4953626;29;20038;-76
2023/06/17 06:22:44;;;;;;;8.82;4.32;;;32.00;80.30;;;;;;4953489;29;20475;-75
2023/06/17 06:25:10;;;;;;;9.25;4.28;;;32.10;79.60;;;;;;4953827;29;20444;-75
2023/06/17 06:27:35;;;;;;;5.60;3.85;;;32.20;79.00;;;;;;4953755;29;20023;-75
2023/06/17 06:30:01;;;;;;;7.63;3.92;;;32.30;78.60;;;;;;4954134;29;20159;-75
2023/06/17 06:32:26;;;;;;;5.63;3.70;;;32.40;78.00;;;;;;4944566;29;20358;-76
2023/06/17 06:34:52;;;;;;;8.23;3.58;;;32.70;76.60;;;;;;4934336;29;20075;-76
2023/06/17 06:37:18;;;;;;;5.75;3.53;;;33.00;75.20;;;;;;4934451;29;20127;-75
2023/06/17 06:39:43;;;;;;;9.13;3.90;;;33.50;74.40;;;;;;4934614;29;20035;-76
2023/06/17 06:42:11;;;;;;;7.13;3.70;;;34.00;72.90;;;;;;4917421;29;20035;-75
2023/06/17 06:44:36;;;;;;;6.65;3.28;;;34.40;71.50;;;;;;4934513;29;20043;-75
2023/06/17 06:47:02;;;;;;;8.55;3.95;;;34.70;71.60;;;;;;4933261;29;20388;-76
2023/06/17 06:49:28;;;;;;;8.23;4.13;;;35.10;69.50;;;;;;4934267;29;20032;-75
2023/06/17 06:51:53;;;;;;;6.68;4.05;;;35.50;67.70;;;;;;4934454;29;20028;-75
2023/06/17 06:54:19;;;;;;;5.45;3.22;;;35.90;67.90;;;;;;4934616;29;20123;-75
2023/06/17 06:56:45;;;;;;;7.03;3.85;;;36.30;67.20;;;;;;4934790;29;20387;-75
2023/06/17 06:59:10;;;;;;;6.22;3.38;;;36.70;66.40;;;;;;4934424;29;20035;-75
2023/06/17 07:01:36;;;;;;;6.15;3.58;;;37.10;65.70;;;;;;4934557;29;20036;-75
2023/06/17 07:04:01;;;;;;;5.55;3.70;;;37.30;65.10;;;;;;4934086;29;20398;-75
2023/06/17 07:06:27;;;;;;;7.93;3.40;;;37.40;63.90;;;;;;4934288;29;20108;-75
2023/06/17 07:08:53;;;;;;;5.40;3.72;;;37.50;62.10;;;;;;4918185;29;20040;-75
2023/06/17 07:11:18;;;;;;;3.80;3.15;;;37.60;61.90;;;;;;4937274;29;20114;-76
2023/06/17 07:13:44;;;;;;;6.60;3.53;;;37.70;62.10;;;;;;4937400;29;20050;-75
2023/06/17 07:16:09;;;;;;;4.85;3.22;;;37.90;61.00;;;;;;4937885;29;20131;-75
2023/06/17 07:18:35;;;;;;;7.43;3.28;;;38.10;59.70;;;;;;4937630;29;20032;-76
2023/06/17 07:21:01;;;;;;;7.78;3.50;;;38.20;59.30;;;;;;4937818;29;20102;-75
2023/06/17 07:23:26;;;;;;;9.13;3.90;;;38.30;59.30;;;;;;4938045;29;20082;-75
2023/06/17 07:25:52;;;;;;;4.90;2.95;;;38.30;58.60;;;;;;4937735;29;20412;-76
2023/06/17 07:28:17;;;;;;;4.40;3.25;;;38.40;58.60;;;;;;4937609;29;20454;-75
2023/06/17 07:30:43;;;;;;;5.82;3.35;;;38.30;57.90;;;;;;4937476;29;20036;-75
2023/06/17 07:33:09;;;;;;;9.20;4.32;;;37.80;58.30;;;;;;4951203;29;20038;-76
2023/06/17 07:35:34;;;;;;;5.38;3.50;;;37.30;58.10;;;;;;4956397;29;20133;-76
2023/06/17 07:38:00;;;;;;;6.65;3.60;;;37.00;58.70;;;;;;4956524;29;20468;-75
2023/06/17 07:40:25;;;;;;;4.50;3.22;;;36.70;60.00;;;;;;4956583;29;20058;-75
2023/06/17 07:42:51;;;;;;;4.88;3.30;;;36.90;59.30;;;;;;4956451;29;20106;-74
2023/06/17 07:45:17;;;;;;;5.18;3.67;;;36.90;59.20;;;;;;4956485;29;20035;-75
2023/06/17 07:47:42;;;;;;;5.20;2.90;;;36.90;59.10;;;;;;4955818;29;20450;-76
2023/06/17 07:50:08;;;;;;;4.43;3.35;;;37.00;59.20;;;;;;4956050;29;20027;-75
2023/06/17 07:52:35;;;;;;;7.20;3.10;;;37.00;58.20;;;;;;4955730;28;20456;-75
2023/06/17 07:55:01;;;;;;;6.82;3.13;;;37.00;58.50;;;;;;4955746;28;20086;-75
2023/06/17 07:57:27;;;;;;;7.25;3.60;;;36.80;59.60;;;;;;4955731;29;20065;-75
2023/06/17 07:59:52;;;;;;;5.65;3.63;;;36.10;59.40;;;;;;4952908;29;20043;-76
2023/06/17 08:02:18;;;;;;;5.68;3.05;;;35.70;59.90;;;;;;4955201;29;20038;-76
2023/06/17 08:04:44;;;;;;;8.73;3.35;;;35.10;59.60;;;;;;4955677;29;20027;-75
2023/06/17 08:07:11;;;;;;;3.83;2.95;;;34.50;61.00;;;;;;4956019;29;20065;-75
2023/06/17 08:09:36;;;;;;;6.82;3.60;;;34.00;61.60;;;;;;4938821;29;20038;-74
2023/06/17 08:12:02;;;;;;;4.28;2.70;;;33.60;61.10;;;;;;4950891;29;20028;-73
2023/06/17 08:14:28;;;;;;;5.90;3.20;;;33.40;59.50;;;;;;4942589;29;20090;-75
2023/06/17 08:16:53;;;;;;;5.97;3.22;;;33.30;58.70;;;;;;4955495;29;20126;-75
2023/06/17 08:19:19;;;;;;;8.05;3.00;;;33.40;59.60;;;;;;4955912;29;20395;-74
2023/06/17 08:21:45;;;;;;;5.60;3.20;;;34.00;58.80;;;;;;4949988;28;20067;-74
2023/06/17 08:24:26;;;;;;;6.80;3.13;;;34.40;58.10;;;;;;4955948;29;20023;-75
2023/06/17 08:26:53;;;;;;;6.40;2.88;;;35.30;58.00;;;;;;4953545;29;20400;-75
2023/06/17 08:29:19;;;;;;;4.65;2.78;;;36.30;57.00;;;;;;4944875;29;20038;-75
2023/06/17 08:31:48;;;;;;;5.35;3.22;;;37.10;54.90;;;;;;4947944;29;20043;-75
2023/06/17 08:34:15;;;;;;;5.38;2.58;;;37.80;53.80;;;;;;4955647;29;20542;-75
2023/06/17 08:36:49;;;;;;;4.20;2.95;;;38.60;53.00;;;;;;4938359;29;20539;-74
2023/06/17 08:39:15;;;;;;;4.30;3.20;;;39.30;53.50;;;;;;4936538;29;20024;-75
2023/06/17 08:41:42;;;;;;;5.28;2.90;;;40.00;53.10;;;;;;4935299;29;20123;-74
2023/06/17 08:44:10;;;;;;;5.65;2.65;;;40.60;52.30;;;;;;4944616;29;20106;-74
2023/06/17 08:46:36;;;;;;;4.38;2.83;;;41.20;51.30;;;;;;4955537;29;20031;-75
2023/06/17 08:49:02;;;;;;;4.93;3.03;;;41.70;50.90;;;;;;4938078;29;20434;-75
2023/06/17 08:51:28;;;;;;;10.73;4.55;;;42.00;51.00;;;;;;4955418;29;20038;-75
2023/06/17 08:53:55;;;;;;;4.22;2.95;;;42.30;49.80;;;;;;4954492;29;20043;-76
2023/06/17 08:56:21;;;;;;;5.00;2.63;;;42.50;49.20;;;;;;4938300;29;20028;-76
2023/06/17 08:58:47;;;;;;;3.25;2.45;;;42.70;47.80;;;;;;4936860;29;20042;-75
2023/06/17 09:01:14;;;;;;;4.75;2.85;;;42.80;47.50;;;;;;4946072;28;20036;-75
2023/06/17 09:03:44;;;;;;;4.28;2.72;;;43.00;46.60;;;;;;4936076;29;20039;-76
2023/06/17 09:06:18;;;;;;;4.60;3.20;;;43.20;45.00;;;;;;4934628;29;20110;-75
2023/06/17 09:08:44;;;;;;;5.28;2.60;;;43.50;44.30;;;;;;4937517;29;20089;-75
2023/06/17 09:11:10;;;;;;;3.90;2.80;;;43.60;43.80;;;;;;4954201;29;20118;-75
2023/06/17 09:13:37;;;;;;;3.85;2.60;;;43.60;43.80;;;;;;4954643;29;20031;-74
2023/06/17 09:16:03;;;;;;;8.32;3.47;;;43.50;42.70;;;;;;4954718;29;20391;-75
2023/06/17 09:18:32;;;;;;;4.00;2.80;;;43.50;43.40;;;;;;4954923;29;20039;-76
2023/06/17 09:20:58;;;;;;;4.53;2.60;;;43.50;43.00;;;;;;4954784;29;20320;-74
2023/06/17 09:23:24;;;;;;;5.00;2.78;;;43.40;42.60;;;;;;4954260;29;20036;-74
2023/06/17 09:26:03;;;;;;;4.88;2.50;;;43.40;42.80;;;;;;4954677;29;20583;-73
2023/06/17 09:28:32;;;;;;;2.83;2.28;;;43.60;42.20;;;;;;4954619;29;20035;-74
2023/06/17 09:30:59;;;;;;;2.90;2.60;;;43.80;42.30;;;;;;4954639;29;20467;-75
2023/06/17 09:33:25;;;;;;;5.82;2.85;;;44.10;42.70;;;;;;4937711;28;20083;-75
2023/06/17 09:36:01;;;;;;;7.22;3.20;;;44.50;42.50;;;;;;4947439;29;20121;-76
2023/06/17 09:38:28;;;;;;;4.38;2.75;;;44.80;42.50;;;;;;4936982;29;20035;-74
2023/06/17 09:40:54;;;;;;;5.40;2.85;;;45.00;42.30;;;;;;4946725;29;20031;-74
2023/06/17 09:43:24;;;;;;;3.78;2.63;;;45.10;41.90;;;;;;4944308;29;20123;-75
2023/06/17 09:45:59;;;;;;;5.50;2.88;;;45.20;42.10;;;;;;4954298;29;20038;-74
2023/06/17 09:48:30;;;;;;;12.52;5.28;;;45.20;41.90;;;;;;4954192;29;20030;-75
2023/06/17 09:50:57;;;;;;;4.45;2.47;;;45.30;42.10;;;;;;4954207;29;20031;-75
2023/06/17 09:53:27;;;;;;;5.88;2.60;;;45.40;41.60;;;;;;4954348;29;20042;-75
2023/06/17 09:55:59;;;;;;;5.65;2.50;;;45.60;41.50;;;;;;4954186;29;20057;-76
2023/06/17 09:58:30;;;;;;;4.93;2.70;;;45.90;41.30;;;;;;4954320;29;20479;-76
2023/06/17 10:01:00;;;;;;;6.43;2.67;;;46.00;41.40;;;;;;4953786;29;20063;-75
2023/06/17 10:03:27;;;;;;;6.50;2.63;;;46.10;41.10;;;;;;4954272;29;20122;-75
2023/06/17 10:06:05;;;;;;;4.72;2.72;;;45.90;40.50;;;;;;4953911;29;20047;-75
2023/06/17 10:08:34;;;;;;;3.95;3.05;;;45.60;40.60;;;;;;4954044;28;20511;-75
2023/06/17 10:11:00;;;;;;;5.10;3.08;;;45.60;40.60;;;;;;4953821;29;20038;-75
2023/06/17 10:13:27;;;;;;;5.32;2.80;;;45.90;40.60;;;;;;4950354;29;20128;-75
2023/06/17 10:15:56;;;;;;;3.25;2.85;;;46.10;40.90;;;;;;4949939;29;20034;-74
2023/06/17 10:18:23;;;;;;;4.13;3.03;;;46.20;40.50;;;;;;4954407;29;20081;-75
2023/06/17 10:20:50;;;;;;;3.75;2.78;;;46.30;40.70;;;;;;4948773;29;20062;-76
2023/06/17 10:23:19;;;;;;;3.97;2.85;;;46.60;40.50;;;;;;4953774;29;20027;-76
2023/06/17 10:25:45;;;;;;;4.43;2.83;;;46.80;40.20;;;;;;4943269;29;20051;-76
2023/06/17 10:28:13;;;;;;;6.10;2.63;;;46.80;40.40;;;;;;4953467;29;20094;-75
2023/06/17 10:30:43;;;;;;;6.20;2.60;;;46.90;40.50;;;;;;4953427;29;20365;-75
2023/06/17 10:33:08;;;;;;;4.43;2.88;;;47.10;39.90;;;;;;4954310;29;20031;-75
2023/06/17 10:35:46;;;;;;;3.22;2.80;;;46.90;39.90;;;;;;4954041;29;20035;-76
2023/06/17 10:38:28;;;;;;;5.00;2.80;;;47.00;40.50;;;;;;4953996;29;20031;-75
2023/06/17 10:40:54;;;;;;;4.18;2.88;;;47.00;39.70;;;;;;4954030;29;20027;-76
2023/06/17 10:43:20;;;;;;;3.22;2.88;;;46.90;40.10;;;;;;4954156;28;20070;-76
2023/06/17 10:45:54;;;;;;;4.13;3.03;;;46.60;39.40;;;;;;4957537;29;20130;-75
2023/06/17 10:48:20;;;;;;;4.75;3.15;;;46.50;39.60;;;;;;4957559;29;20035;-75
2023/06/17 10:50:55;;;;;;;3.33;2.70;;;46.60;39.30;;;;;;4957252;29;20035;-76
2023/06/17 10:53:32;;;;;;;4.05;2.75;;;46.80;39.00;;;;;;4957481;29;20475;-75
2023/06/17 10:55:59;;;;;;;3.58;2.92;;;47.10;39.10;;;;;;4957619;29;20046;-75
2023/06/17 10:58:33;;;;;;;5.78;3.10;;;47.10;38.50;;;;;;4957291;29;20448;-76
2023/06/17 11:01:01;;;;;;;6.65;3.13;;;47.00;38.80;;;;;;4955497;29;20032;-77
2023/06/17 11:03:27;;;;;;;5.90;2.83;;;47.10;39.10;;;;;;4937983;29;20028;-76
2023/06/17 11:06:07;;;;;;;3.40;2.70;;;47.00;38.90;;;;;;4943491;29;20046;-76
2023/06/17 11:08:35;;;;;;;4.68;2.70;;;46.60;38.80;;;;;;4955907;29;20027;-75
2023/06/17 11:11:14;;;;;;;5.38;2.85;;;46.40;39.30;;;;;;4957254;29;20038;-75
2023/06/17 11:13:43;;;;;;;5.53;2.80;;;46.30;39.10;;;;;;4957574;29;20126;-76
2023/06/17 11:16:09;;;;;;;5.28;2.83;;;46.20;39.30;;;;;;4956807;29;20082;-75
2023/06/17 11:18:40;;;;;;;3.63;2.88;;;46.20;39.20;;;;;;4956957;29;20078;-76
2023/06/17 11:21:06;;;;;;;;;;;46.30;39.00;;;;;;4957341;29;20456;-75
2023/06/17 11:23:35;;;;;;;8.90;2.90;;;46.60;39.00;;;;;;4940070;29;20020;-77
2023/06/17 11:26:05;;;;;;;5.13;3.00;;;46.60;38.80;;;;;;4937191;29;20035;-75
2023/06/17 11:28:31;;;;;;;4.35;2.88;;;46.70;38.70;;;;;;4936047;29;20425;-74
2023/06/17 11:30:57;;;;;;;3.08;2.78;;;46.80;38.80;;;;;;4937824;29;20114;-76
2023/06/17 11:33:23;;;;;;;5.03;2.80;;;46.90;38.80;;;;;;4953811;29;20035;-75
2023/06/17 11:35:52;;;;;;;4.03;2.70;;;47.00;39.00;;;;;;4939650;29;20162;-76
2023/06/17 11:38:18;;;;;;;6.55;2.95;;;47.00;38.80;;;;;;4956866;29;20106;-74
2023/06/17 11:40:45;;;;;;;5.78;3.17;;;46.90;38.80;;;;;;4921036;29;20088;-76
2023/06/17 11:43:10;;;;;;;5.15;3.08;;;46.80;38.70;;;;;;4919718;29;20056;-76
2023/06/17 11:45:37;;;;;;;5.30;3.33;;;46.70;38.50;;;;;;4920404;29;20044;-76
2023/06/17 11:48:09;;;;;;;5.00;3.50;;;46.80;39.20;;;;;;4937508;29;20094;-75
2023/06/17 11:50:38;;;;;;;4.00;3.20;;;46.60;38.50;;;;;;4937261;29;20031;-75
2023/06/17 11:53:03;;;;;;;6.43;3.15;;;46.20;38.20;;;;;;4937148;29;20035;-76
2023/06/17 11:55:33;;;;;;;5.45;3.30;;;46.20;38.30;;;;;;4936267;29;20044;-75
2023/06/17 11:58:03;;;;;;;6.32;3.20;;;46.10;38.30;;;;;;4937268;29;20038;-76
2023/06/17 12:00:30;;;;;;;6.13;3.40;;;45.70;38.20;;;;;;4937687;29;20035;-76
2023/06/17 12:02:57;;;;;;;4.72;3.20;;;45.30;38.40;;;;;;4937611;29;20023;-75
2023/06/17 12:05:29;;;;;;;4.07;3.17;;;45.30;38.70;;;;;;4956289;29;20114;-76
2023/06/17 12:08:01;;;;;;;8.65;3.40;;;45.40;39.40;;;;;;4956168;29;20094;-75
2023/06/17 12:10:27;;;;;;;5.18;3.20;;;45.50;38.50;;;;;;4956173;29;20033;-76
2023/06/17 12:12:56;;;;;;;4.93;3.17;;;45.70;38.70;;;;;;4955997;29;20399;-75
2023/06/17 12:15:28;;;;;;;5.97;3.47;;;45.60;38.70;;;;;;4955965;29;20110;-75
2023/06/17 12:17:53;;;;;;;9.27;3.28;;;45.30;38.70;;;;;;4938873;29;20031;-74
2023/06/17 12:20:20;;;;;;;6.90;3.22;;;45.00;38.50;;;;;;4955971;29;20935;-75
2023/06/17 12:22:48;;;;;;;3.80;2.95;;;44.70;38.70;;;;;;4955452;29;20031;-74
2023/06/17 12:25:14;;;;;;;6.22;3.28;;;44.50;39.30;;;;;;4955734;29;20122;-75
2023/06/17 12:27:40;;;;;;;5.80;3.38;;;44.50;38.70;;;;;;4955234;29;20122;-75
2023/06/17 12:30:08;;;;;;;3.38;2.83;;;44.80;38.60;;;;;;4955979;29;20054;-75
2023/06/17 12:32:34;;;;;;;3.35;2.95;;;45.10;38.70;;;;;;4955802;29;20106;-75
2023/06/17 12:35:00;;;;;;;6.03;3.40;;;45.30;38.70;;;;;;4955613;29;20097;-76
2023/06/17 12:37:27;;;;;;;6.43;3.92;;;45.10;38.80;;;;;;4955655;29;20039;-77